SBI2507 UUDD-UNNT
Flight info
| Callsign | SBI2507 |
|---|---|
| Flight time | 3h 22m |
| Altitude | 35000 |
| Route | OLMUN T629 IPSIL T830 LAMGU N604 OGSIN P983 TINRI T448 RUBOR A300 ML R814 SZ W1 GOLIM |
| Aircraft | B738/M-SDE2E3FGHIRWXY/LB1 |
Departure
| Time | 2026-05-04 11:52 |
|---|---|
| Airport | Domodedovo International Airport (UUDD) |
Arrival
| Time | 2026-05-04 15:15 |
|---|---|
| Airport | Novosibirsk Tolmachevo Airport (UNNT) |
| Time | Latitude | Longitude | Altitude | Speed | Heading |
|---|---|---|---|---|---|
| 2026-05-04 11:08 | 55.41174 | 37.89918 | 571 ft | 0 kts | 41° |
| 2026-05-04 11:40 | 55.41139 | 37.89725 | 575 ft | 4 kts | 134° |
| 2026-05-04 11:41 | 55.41147 | 37.89712 | 576 ft | 1 kts | 146° |
| 2026-05-04 11:45 | 55.41144 | 37.89715 | 578 ft | 1 kts | 146° |
| 2026-05-04 11:46 | 55.41122 | 37.89742 | 575 ft | 7 kts | 146° |
| 2026-05-04 11:46 | 55.41070 | 37.89804 | 573 ft | 11 kts | 146° |
| 2026-05-04 11:46 | 55.41002 | 37.89886 | 570 ft | 12 kts | 146° |
| 2026-05-04 11:46 | 55.40940 | 37.89944 | 568 ft | 9 kts | 186° |
| 2026-05-04 11:47 | 55.40900 | 37.89858 | 571 ft | 9 kts | 236° |
| 2026-05-04 11:47 | 55.40866 | 37.89768 | 571 ft | 9 kts | 235° |
| 2026-05-04 11:47 | 55.40831 | 37.89680 | 568 ft | 9 kts | 235° |
| 2026-05-04 11:47 | 55.40791 | 37.89607 | 568 ft | 8 kts | 201° |
| 2026-05-04 11:48 | 55.40746 | 37.89553 | 574 ft | 8 kts | 235° |
| 2026-05-04 11:48 | 55.40715 | 37.89473 | 570 ft | 8 kts | 235° |
| 2026-05-04 11:48 | 55.40684 | 37.89395 | 572 ft | 8 kts | 235° |
| 2026-05-04 11:48 | 55.40639 | 37.89355 | 567 ft | 8 kts | 174° |
| 2026-05-04 11:49 | 55.40578 | 37.89417 | 567 ft | 13 kts | 146° |
| 2026-05-04 11:49 | 55.40485 | 37.89530 | 563 ft | 19 kts | 145° |
| 2026-05-04 11:49 | 55.40374 | 37.89663 | 560 ft | 19 kts | 146° |
| 2026-05-04 11:49 | 55.40267 | 37.89792 | 558 ft | 19 kts | 145° |
| 2026-05-04 11:50 | 55.40161 | 37.89920 | 557 ft | 18 kts | 145° |
| 2026-05-04 11:50 | 55.40085 | 37.90003 | 560 ft | 7 kts | 168° |
| 2026-05-04 11:50 | 55.40047 | 37.89955 | 559 ft | 7 kts | 249° |
| 2026-05-04 11:50 | 55.40059 | 37.89871 | 554 ft | 7 kts | 294° |
| 2026-05-04 11:51 | 55.40080 | 37.89791 | 562 ft | 7 kts | 294° |
| 2026-05-04 11:51 | 55.40091 | 37.89703 | 559 ft | 8 kts | 269° |
| 2026-05-04 11:51 | 55.40108 | 37.89620 | 557 ft | 8 kts | 326° |
| 2026-05-04 11:51 | 55.40170 | 37.89548 | 565 ft | 24 kts | 326° |
| 2026-05-04 11:52 | 55.40508 | 37.89141 | 565 ft | 93 kts | 325° |
| 2026-05-04 11:52 | 55.41218 | 37.88290 | 580 ft | 152 kts | 326° |
| 2026-05-04 11:52 | 55.41838 | 37.87477 | 659 ft | 179 kts | 320° |
| 2026-05-04 11:52 | 55.42836 | 37.86140 | 1386 ft | 182 kts | 321° |
| 2026-05-04 11:53 | 55.43915 | 37.84885 | 2174 ft | 187 kts | 326° |
| 2026-05-04 11:53 | 55.45053 | 37.83627 | 2770 ft | 204 kts | 326° |
| 2026-05-04 11:53 | 55.46299 | 37.82299 | 3256 ft | 213 kts | 324° |
| 2026-05-04 11:53 | 55.47326 | 37.80446 | 3836 ft | 211 kts | 304° |
| 2026-05-04 11:55 | 55.56327 | 37.80406 | 5194 ft | 282 kts | 78° |
| 2026-05-04 11:55 | 55.56517 | 37.83870 | 6081 ft | 284 kts | 88° |
| 2026-05-04 11:56 | 55.56568 | 37.87378 | 6883 ft | 288 kts | 89° |
| 2026-05-04 11:56 | 55.56596 | 37.90945 | 7619 ft | 293 kts | 89° |
| 2026-05-04 11:56 | 55.56633 | 37.94582 | 8343 ft | 299 kts | 88° |
| 2026-05-04 11:56 | 55.56685 | 37.98288 | 9077 ft | 303 kts | 88° |
| 2026-05-04 11:57 | 55.56744 | 38.01979 | 9824 ft | 306 kts | 88° |
| 2026-05-04 11:57 | 55.56808 | 38.05782 | 10456 ft | 316 kts | 87° |
| 2026-05-04 11:57 | 55.56883 | 38.09764 | 10885 ft | 329 kts | 86° |
| 2026-05-04 11:57 | 55.56960 | 38.13860 | 11523 ft | 336 kts | 86° |
| 2026-05-04 11:58 | 55.57037 | 38.17988 | 12287 ft | 336 kts | 86° |
| 2026-05-04 11:58 | 55.57115 | 38.22140 | 12736 ft | 339 kts | 86° |
| 2026-05-04 11:58 | 55.57193 | 38.26319 | 12875 ft | 342 kts | 86° |
| 2026-05-04 11:58 | 55.57269 | 38.30517 | 12878 ft | 342 kts | 86° |
| 2026-05-04 11:59 | 55.57344 | 38.34715 | 12876 ft | 341 kts | 86° |
| 2026-05-04 11:59 | 55.57418 | 38.38891 | 12886 ft | 340 kts | 86° |
| 2026-05-04 11:59 | 55.57499 | 38.43064 | 12883 ft | 339 kts | 83° |
| 2026-05-04 11:59 | 55.58070 | 38.47040 | 12904 ft | 334 kts | 60° |
| 2026-05-04 12:00 | 55.59242 | 38.50627 | 13378 ft | 338 kts | 56° |
| 2026-05-04 12:00 | 55.60462 | 38.54185 | 14164 ft | 338 kts | 56° |
| 2026-05-04 12:00 | 55.61667 | 38.57764 | 14869 ft | 340 kts | 56° |
| 2026-05-04 12:00 | 55.62874 | 38.61388 | 15492 ft | 344 kts | 56° |
| 2026-05-04 12:01 | 55.64091 | 38.65059 | 16123 ft | 347 kts | 56° |
| 2026-05-04 12:01 | 55.65322 | 38.68785 | 16741 ft | 351 kts | 56° |
| 2026-05-04 12:02 | 55.72717 | 38.91279 | 16890 ft | 352 kts | 57° |
| 2026-05-04 12:03 | 55.74045 | 38.94849 | 16899 ft | 352 kts | 46° |
| 2026-05-04 12:03 | 55.75737 | 38.98015 | 17315 ft | 355 kts | 42° |
| 2026-05-04 12:03 | 55.77351 | 39.00917 | 18033 ft | 352 kts | 42° |
| 2026-05-04 12:03 | 55.79063 | 39.04036 | 18670 ft | 354 kts | 43° |
| 2026-05-04 12:04 | 55.80779 | 39.07219 | 19227 ft | 358 kts | 43° |
| 2026-05-04 12:04 | 55.82503 | 39.10463 | 19781 ft | 361 kts | 43° |
| 2026-05-04 12:04 | 55.84233 | 39.13740 | 20325 ft | 365 kts | 43° |
| 2026-05-04 12:04 | 55.85982 | 39.17065 | 20689 ft | 373 kts | 44° |
| 2026-05-04 12:05 | 55.87794 | 39.20527 | 20749 ft | 390 kts | 44° |
| 2026-05-04 12:05 | 55.89680 | 39.24134 | 20862 ft | 404 kts | 44° |
| 2026-05-04 12:05 | 55.91630 | 39.27869 | 20958 ft | 418 kts | 44° |
| 2026-05-04 12:05 | 55.93635 | 39.31624 | 21095 ft | 428 kts | 41° |
| 2026-05-04 12:06 | 55.95844 | 39.35370 | 21334 ft | 435 kts | 40° |
| 2026-05-04 12:06 | 55.98060 | 39.38979 | 21749 ft | 437 kts | 39° |
| 2026-05-04 12:06 | 56.00306 | 39.42629 | 22202 ft | 439 kts | 39° |
| 2026-05-04 12:06 | 56.02558 | 39.46332 | 22596 ft | 442 kts | 40° |
| 2026-05-04 12:07 | 56.04815 | 39.50089 | 22948 ft | 445 kts | 40° |
| 2026-05-04 12:07 | 56.07070 | 39.53916 | 23343 ft | 448 kts | 43° |
| 2026-05-04 12:07 | 56.09074 | 39.58222 | 23723 ft | 453 kts | 53° |
| 2026-05-04 12:07 | 56.10801 | 39.62974 | 24139 ft | 455 kts | 54° |
| 2026-05-04 12:08 | 56.12486 | 39.67785 | 24507 ft | 457 kts | 55° |
| 2026-05-04 12:08 | 56.14175 | 39.72638 | 24842 ft | 459 kts | 55° |
| 2026-05-04 12:08 | 56.15874 | 39.77499 | 25187 ft | 461 kts | 55° |
| 2026-05-04 12:08 | 56.17591 | 39.82374 | 25511 ft | 463 kts | 54° |
| 2026-05-04 12:09 | 56.19323 | 39.87267 | 25852 ft | 464 kts | 54° |
| 2026-05-04 12:09 | 56.21060 | 39.92164 | 26159 ft | 466 kts | 54° |
| 2026-05-04 12:09 | 56.22805 | 39.97080 | 26451 ft | 467 kts | 54° |
| 2026-05-04 12:09 | 56.24432 | 40.01665 | 26701 ft | 469 kts | 54° |
| 2026-05-04 12:10 | 56.26190 | 40.06632 | 26992 ft | 471 kts | 54° |
| 2026-05-04 12:10 | 56.27944 | 40.11603 | 27270 ft | 472 kts | 54° |
| 2026-05-04 12:10 | 56.29705 | 40.16606 | 27520 ft | 474 kts | 54° |
| 2026-05-04 12:10 | 56.31472 | 40.21636 | 27776 ft | 475 kts | 54° |
| 2026-05-04 12:11 | 56.33236 | 40.26670 | 28112 ft | 474 kts | 54° |
| 2026-05-04 12:11 | 56.34994 | 40.31701 | 28501 ft | 473 kts | 54° |
| 2026-05-04 12:11 | 56.36741 | 40.36709 | 28899 ft | 471 kts | 54° |
| 2026-05-04 12:11 | 56.38482 | 40.41707 | 29264 ft | 470 kts | 54° |
| 2026-05-04 12:12 | 56.40217 | 40.46698 | 29588 ft | 469 kts | 54° |
| 2026-05-04 12:12 | 56.41952 | 40.51695 | 29903 ft | 468 kts | 54° |
| 2026-05-04 12:12 | 56.43682 | 40.56689 | 30229 ft | 467 kts | 54° |
| 2026-05-04 12:12 | 56.45368 | 40.61711 | 30554 ft | 468 kts | 58° |
| 2026-05-04 12:13 | 56.46711 | 40.67096 | 30857 ft | 473 kts | 67° |
| 2026-05-04 12:14 | 56.52612 | 41.07148 | 32831 ft | 471 kts | 70° |
| 2026-05-04 12:15 | 56.53458 | 41.12873 | 33106 ft | 470 kts | 70° |
| 2026-05-04 12:15 | 56.54292 | 41.18526 | 33356 ft | 469 kts | 70° |
| 2026-05-04 12:15 | 56.55141 | 41.24301 | 33597 ft | 469 kts | 70° |
| 2026-05-04 12:15 | 56.55966 | 41.29935 | 33874 ft | 467 kts | 69° |
| 2026-05-04 12:16 | 56.56797 | 41.35636 | 34122 ft | 467 kts | 69° |
| 2026-05-04 12:16 | 56.57626 | 41.41336 | 34312 ft | 467 kts | 70° |
| 2026-05-04 12:16 | 56.58454 | 41.47047 | 34485 ft | 468 kts | 70° |
| 2026-05-04 12:16 | 56.59277 | 41.52753 | 34667 ft | 469 kts | 70° |
| 2026-05-04 12:17 | 56.60097 | 41.58459 | 34835 ft | 465 kts | 70° |
| 2026-05-04 12:17 | 56.60912 | 41.64158 | 34849 ft | 467 kts | 70° |
| 2026-05-04 12:17 | 56.62546 | 41.75625 | 34865 ft | 469 kts | 70° |
| 2026-05-04 12:18 | 56.64169 | 41.87117 | 34860 ft | 470 kts | 70° |
| 2026-05-04 12:18 | 56.65783 | 41.98625 | 34862 ft | 470 kts | 70° |
| 2026-05-04 12:19 | 56.67353 | 42.09895 | 34863 ft | 469 kts | 70° |
| 2026-05-04 12:19 | 56.68936 | 42.21348 | 34859 ft | 470 kts | 70° |
| 2026-05-04 12:20 | 56.70517 | 42.32873 | 34861 ft | 470 kts | 71° |
| 2026-05-04 12:20 | 56.72093 | 42.44441 | 34862 ft | 470 kts | 71° |
| 2026-05-04 12:21 | 56.73656 | 42.55997 | 34862 ft | 470 kts | 71° |
| 2026-05-04 12:21 | 56.75416 | 42.67438 | 34864 ft | 468 kts | 68° |
| 2026-05-04 12:22 | 56.77329 | 42.78784 | 34862 ft | 469 kts | 68° |
| 2026-05-04 12:22 | 56.79210 | 42.90101 | 34862 ft | 470 kts | 68° |
| 2026-05-04 12:23 | 56.81028 | 43.01304 | 34862 ft | 471 kts | 68° |
| 2026-05-04 12:23 | 56.82863 | 43.12784 | 34864 ft | 472 kts | 68° |
| 2026-05-04 12:24 | 56.84692 | 43.24328 | 34860 ft | 472 kts | 69° |
| 2026-05-04 12:24 | 56.86507 | 43.35863 | 34861 ft | 473 kts | 69° |
| 2026-05-04 12:25 | 56.88320 | 43.47439 | 34868 ft | 474 kts | 69° |
| 2026-05-04 12:25 | 56.90128 | 43.59070 | 34861 ft | 475 kts | 69° |
| 2026-05-04 12:26 | 56.91925 | 43.70712 | 34862 ft | 475 kts | 69° |
| 2026-05-04 12:26 | 56.93713 | 43.82386 | 34858 ft | 476 kts | 69° |
| 2026-05-04 12:27 | 56.95482 | 43.94000 | 34864 ft | 476 kts | 69° |
| 2026-05-04 12:27 | 56.97216 | 44.05462 | 34861 ft | 477 kts | 70° |
| 2026-05-04 12:28 | 56.98976 | 44.17194 | 34857 ft | 477 kts | 70° |
| 2026-05-04 12:28 | 57.00721 | 44.28921 | 34863 ft | 477 kts | 70° |
| 2026-05-04 12:29 | 57.02458 | 44.40656 | 34864 ft | 477 kts | 70° |
| 2026-05-04 12:29 | 57.04186 | 44.52422 | 34857 ft | 477 kts | 70° |
| 2026-05-04 12:30 | 57.05898 | 44.64175 | 34861 ft | 476 kts | 70° |
| 2026-05-04 12:30 | 57.07604 | 44.75953 | 34861 ft | 477 kts | 70° |
| 2026-05-04 12:31 | 57.09286 | 44.87663 | 34858 ft | 477 kts | 70° |
| 2026-05-04 12:31 | 57.10968 | 44.99460 | 34863 ft | 477 kts | 70° |
| 2026-05-04 12:32 | 57.13433 | 45.16921 | 34863 ft | 478 kts | 71° |
| 2026-05-04 12:33 | 57.15091 | 45.28766 | 34862 ft | 478 kts | 71° |
| 2026-05-04 12:33 | 57.16742 | 45.40645 | 34863 ft | 479 kts | 71° |
| 2026-05-04 12:34 | 57.18381 | 45.52545 | 34870 ft | 479 kts | 71° |
| 2026-05-04 12:34 | 57.20013 | 45.64485 | 34875 ft | 479 kts | 71° |
| 2026-05-04 12:35 | 57.21631 | 45.76411 | 34874 ft | 480 kts | 71° |
| 2026-05-04 12:35 | 57.23241 | 45.88374 | 34872 ft | 480 kts | 71° |
| 2026-05-04 12:36 | 57.24826 | 46.00238 | 34870 ft | 481 kts | 71° |
| 2026-05-04 12:36 | 57.26132 | 46.10081 | 34869 ft | 481 kts | 72° |
| 2026-05-04 12:37 | 57.27710 | 46.22097 | 34870 ft | 481 kts | 72° |
| 2026-05-04 12:37 | 57.29284 | 46.34136 | 34871 ft | 482 kts | 72° |
| 2026-05-04 12:38 | 57.30846 | 46.46204 | 34874 ft | 483 kts | 72° |
| 2026-05-04 12:38 | 57.32398 | 46.58290 | 34868 ft | 483 kts | 73° |
| 2026-05-04 12:39 | 57.33893 | 46.70016 | 34880 ft | 484 kts | 73° |
| 2026-05-04 12:39 | 57.35816 | 46.81914 | 34867 ft | 479 kts | 62° |
| 2026-05-04 12:40 | 57.38594 | 46.93115 | 34871 ft | 478 kts | 61° |
| 2026-05-04 12:40 | 57.41306 | 47.03966 | 34874 ft | 479 kts | 62° |
| 2026-05-04 12:41 | 57.44047 | 47.15242 | 34864 ft | 479 kts | 62° |
| 2026-05-04 12:41 | 57.46758 | 47.26553 | 34868 ft | 479 kts | 62° |
| 2026-05-04 12:42 | 57.49462 | 47.37874 | 34873 ft | 479 kts | 63° |
| 2026-05-04 12:42 | 57.52162 | 47.49214 | 34874 ft | 480 kts | 63° |
| 2026-05-04 12:43 | 57.54856 | 47.60581 | 34881 ft | 480 kts | 63° |
| 2026-05-04 12:43 | 57.57550 | 47.72004 | 34880 ft | 481 kts | 63° |
| 2026-05-04 12:44 | 57.60232 | 47.83436 | 34879 ft | 482 kts | 63° |
| 2026-05-04 12:44 | 57.62915 | 47.94940 | 34879 ft | 483 kts | 63° |
| 2026-05-04 12:45 | 57.65508 | 48.06124 | 34885 ft | 485 kts | 64° |
| 2026-05-04 12:45 | 57.68181 | 48.17702 | 34873 ft | 486 kts | 64° |
| 2026-05-04 12:46 | 57.70854 | 48.29343 | 34873 ft | 488 kts | 64° |
| 2026-05-04 12:46 | 57.73519 | 48.41006 | 34869 ft | 488 kts | 64° |
| 2026-05-04 12:47 | 57.75494 | 48.53193 | 34865 ft | 492 kts | 80° |
| 2026-05-04 12:47 | 57.76359 | 48.65904 | 34868 ft | 492 kts | 82° |
| 2026-05-04 12:48 | 57.77175 | 48.78641 | 34873 ft | 491 kts | 81° |
| 2026-05-04 12:48 | 57.78030 | 48.91308 | 34866 ft | 490 kts | 81° |
| 2026-05-04 12:49 | 57.78882 | 49.03678 | 34865 ft | 488 kts | 81° |
| 2026-05-04 12:49 | 57.79742 | 49.16290 | 34870 ft | 487 kts | 81° |
| 2026-05-04 12:50 | 57.80582 | 49.28865 | 34873 ft | 486 kts | 82° |
| 2026-05-04 12:50 | 57.81408 | 49.41421 | 34873 ft | 484 kts | 82° |
| 2026-05-04 12:51 | 57.82220 | 49.53972 | 34880 ft | 484 kts | 82° |
| 2026-05-04 12:51 | 57.83017 | 49.66489 | 34883 ft | 484 kts | 82° |
| 2026-05-04 12:52 | 57.83805 | 49.79043 | 34876 ft | 485 kts | 83° |
| 2026-05-04 12:52 | 57.84582 | 49.91603 | 34881 ft | 485 kts | 83° |
| 2026-05-04 12:53 | 57.85330 | 50.03923 | 34876 ft | 486 kts | 83° |
| 2026-05-04 12:53 | 57.86087 | 50.16524 | 34880 ft | 486 kts | 83° |
| 2026-05-04 12:54 | 57.86838 | 50.29157 | 34882 ft | 487 kts | 83° |
| 2026-05-04 12:54 | 57.87577 | 50.41808 | 34880 ft | 487 kts | 83° |
| 2026-05-04 12:55 | 57.88304 | 50.54456 | 34874 ft | 488 kts | 83° |
| 2026-05-04 12:55 | 57.89019 | 50.67131 | 34882 ft | 488 kts | 83° |
| 2026-05-04 12:56 | 57.89721 | 50.79826 | 34879 ft | 487 kts | 83° |
| 2026-05-04 12:56 | 57.90406 | 50.92421 | 34877 ft | 487 kts | 84° |
| 2026-05-04 12:57 | 57.91067 | 51.04815 | 34859 ft | 487 kts | 84° |
| 2026-05-04 12:57 | 57.91731 | 51.17492 | 34861 ft | 486 kts | 84° |
| 2026-05-04 12:58 | 57.92378 | 51.30133 | 34858 ft | 485 kts | 84° |
| 2026-05-04 12:58 | 57.93016 | 51.42766 | 34859 ft | 484 kts | 84° |
| 2026-05-04 12:59 | 57.93638 | 51.55383 | 34856 ft | 484 kts | 84° |
| 2026-05-04 12:59 | 57.94249 | 51.68018 | 34869 ft | 484 kts | 84° |
| 2026-05-04 13:00 | 57.94850 | 51.80648 | 34859 ft | 485 kts | 85° |
| 2026-05-04 13:00 | 57.95433 | 51.93201 | 34862 ft | 485 kts | 85° |
| 2026-05-04 13:01 | 57.95996 | 52.05549 | 34858 ft | 485 kts | 85° |
| 2026-05-04 13:01 | 57.96562 | 52.18225 | 34851 ft | 485 kts | 85° |
| 2026-05-04 13:02 | 57.97115 | 52.30923 | 34857 ft | 486 kts | 85° |
| 2026-05-04 13:02 | 57.97660 | 52.43640 | 34851 ft | 486 kts | 85° |
| 2026-05-04 13:03 | 57.98191 | 52.56350 | 34852 ft | 486 kts | 85° |
| 2026-05-04 13:03 | 57.98711 | 52.69061 | 34840 ft | 487 kts | 85° |
| 2026-05-04 13:04 | 57.99217 | 52.81785 | 34841 ft | 486 kts | 85° |
| 2026-05-04 13:04 | 57.99707 | 52.94471 | 34841 ft | 485 kts | 86° |
| 2026-05-04 13:05 | 58.00172 | 53.06830 | 34844 ft | 484 kts | 86° |
| 2026-05-04 13:05 | 58.00640 | 53.19512 | 34841 ft | 484 kts | 86° |
| 2026-05-04 13:06 | 58.01090 | 53.32102 | 34840 ft | 484 kts | 86° |
| 2026-05-04 13:06 | 58.01531 | 53.44772 | 34835 ft | 484 kts | 86° |
| 2026-05-04 13:07 | 58.01959 | 53.57434 | 34833 ft | 484 kts | 86° |
| 2026-05-04 13:07 | 58.02376 | 53.70107 | 34833 ft | 484 kts | 86° |
| 2026-05-04 13:08 | 58.02778 | 53.82783 | 34834 ft | 484 kts | 86° |
| 2026-05-04 13:08 | 58.03169 | 53.95442 | 34820 ft | 483 kts | 87° |
| 2026-05-04 13:09 | 58.03542 | 54.07791 | 34819 ft | 484 kts | 87° |
| 2026-05-04 13:09 | 58.03922 | 54.20470 | 34814 ft | 484 kts | 87° |
| 2026-05-04 13:10 | 58.04292 | 54.33157 | 34815 ft | 484 kts | 87° |
| 2026-05-04 13:10 | 58.04646 | 54.45828 | 34818 ft | 483 kts | 87° |
| 2026-05-04 13:11 | 58.04988 | 54.58506 | 34821 ft | 483 kts | 87° |
| 2026-05-04 13:11 | 58.05320 | 54.71168 | 34815 ft | 483 kts | 87° |
| 2026-05-04 13:12 | 58.05289 | 54.83746 | 34795 ft | 482 kts | 97° |
| 2026-05-04 13:12 | 58.04333 | 54.96267 | 34801 ft | 482 kts | 99° |
| 2026-05-04 13:13 | 58.03376 | 55.08523 | 34810 ft | 482 kts | 98° |
| 2026-05-04 13:13 | 58.02468 | 55.21064 | 34806 ft | 483 kts | 98° |
| 2026-05-04 13:14 | 58.01555 | 55.33622 | 34803 ft | 483 kts | 98° |
| 2026-05-04 13:14 | 58.00630 | 55.46163 | 34798 ft | 483 kts | 98° |
| 2026-05-04 13:15 | 57.99693 | 55.58722 | 34810 ft | 483 kts | 98° |
| 2026-05-04 13:15 | 57.98747 | 55.71237 | 34798 ft | 482 kts | 98° |
| 2026-05-04 13:16 | 57.97790 | 55.83756 | 34804 ft | 482 kts | 98° |
| 2026-05-04 13:16 | 57.96821 | 55.96256 | 34798 ft | 481 kts | 98° |
| 2026-05-04 13:17 | 57.95876 | 56.08435 | 34806 ft | 481 kts | 98° |
| 2026-05-04 13:17 | 57.94896 | 56.20891 | 34809 ft | 481 kts | 98° |
| 2026-05-04 13:18 | 57.93903 | 56.33327 | 34809 ft | 481 kts | 99° |
| 2026-05-04 13:18 | 57.92902 | 56.45699 | 34810 ft | 480 kts | 99° |
| 2026-05-04 13:19 | 57.91887 | 56.58119 | 34796 ft | 481 kts | 99° |
| 2026-05-04 13:19 | 57.90858 | 56.70532 | 34800 ft | 481 kts | 99° |
| 2026-05-04 13:20 | 57.89814 | 56.82962 | 34809 ft | 481 kts | 99° |
| 2026-05-04 13:20 | 57.88762 | 56.95364 | 34812 ft | 481 kts | 99° |
| 2026-05-04 13:21 | 57.87719 | 57.07493 | 34804 ft | 481 kts | 99° |
| 2026-05-04 13:21 | 57.86644 | 57.19887 | 34806 ft | 481 kts | 99° |
| 2026-05-04 13:22 | 57.85555 | 57.32270 | 34812 ft | 481 kts | 99° |
| 2026-05-04 13:22 | 57.84454 | 57.44643 | 34805 ft | 480 kts | 99° |
| 2026-05-04 13:23 | 57.83530 | 57.54923 | 34802 ft | 480 kts | 99° |
| 2026-05-04 13:23 | 57.82409 | 57.67262 | 34812 ft | 480 kts | 99° |
| 2026-05-04 13:24 | 57.81275 | 57.79597 | 34813 ft | 480 kts | 99° |
| 2026-05-04 13:24 | 57.80133 | 57.91920 | 34816 ft | 480 kts | 99° |
| 2026-05-04 13:25 | 57.78419 | 58.10140 | 34814 ft | 481 kts | 99° |
| 2026-05-04 13:25 | 57.77244 | 58.22493 | 34823 ft | 481 kts | 99° |
| 2026-05-04 13:26 | 57.76060 | 58.34825 | 34830 ft | 481 kts | 100° |
| 2026-05-04 13:26 | 57.74864 | 58.47169 | 34827 ft | 482 kts | 100° |
| 2026-05-04 13:27 | 57.73659 | 58.59500 | 34823 ft | 482 kts | 100° |
| 2026-05-04 13:27 | 57.72440 | 58.71843 | 34833 ft | 482 kts | 100° |
| 2026-05-04 13:28 | 57.71217 | 58.84118 | 34830 ft | 483 kts | 101° |
| 2026-05-04 13:28 | 57.69976 | 58.96449 | 34838 ft | 483 kts | 101° |
| 2026-05-04 13:29 | 57.68749 | 59.08508 | 34836 ft | 484 kts | 101° |
| 2026-05-04 13:29 | 57.67475 | 59.20885 | 34834 ft | 485 kts | 101° |
| 2026-05-04 13:30 | 57.66190 | 59.33254 | 34849 ft | 485 kts | 101° |
| 2026-05-04 13:30 | 57.64893 | 59.45618 | 34843 ft | 486 kts | 101° |
| 2026-05-04 13:31 | 57.63583 | 59.57978 | 34842 ft | 486 kts | 101° |
| 2026-05-04 13:31 | 57.62260 | 59.70341 | 34844 ft | 486 kts | 101° |
| 2026-05-04 13:32 | 57.60927 | 59.82689 | 34847 ft | 485 kts | 101° |
| 2026-05-04 13:32 | 57.59580 | 59.95032 | 34851 ft | 484 kts | 101° |
| 2026-05-04 13:33 | 57.58344 | 60.06258 | 34850 ft | 484 kts | 102° |
| 2026-05-04 13:33 | 57.57024 | 60.18141 | 34854 ft | 484 kts | 102° |
| 2026-05-04 13:34 | 57.55650 | 60.30399 | 34848 ft | 483 kts | 102° |
| 2026-05-04 13:34 | 57.54262 | 60.42667 | 34850 ft | 483 kts | 102° |
| 2026-05-04 13:35 | 57.52203 | 60.60986 | 34852 ft | 485 kts | 99° |
| 2026-05-04 13:36 | 57.51679 | 60.73498 | 34853 ft | 486 kts | 92° |
| 2026-05-04 13:36 | 57.51403 | 60.86096 | 34854 ft | 488 kts | 93° |
| 2026-05-04 13:37 | 57.51066 | 60.98729 | 34854 ft | 490 kts | 94° |
| 2026-05-04 13:37 | 57.50679 | 61.11102 | 34855 ft | 491 kts | 94° |
| 2026-05-04 13:38 | 57.50258 | 61.23802 | 34851 ft | 492 kts | 94° |
| 2026-05-04 13:38 | 57.49827 | 61.36540 | 34855 ft | 494 kts | 94° |
| 2026-05-04 13:39 | 57.49383 | 61.49277 | 34853 ft | 494 kts | 94° |
| 2026-05-04 13:39 | 57.48929 | 61.62032 | 34850 ft | 494 kts | 94° |
| 2026-05-04 13:40 | 57.48479 | 61.74749 | 34844 ft | 492 kts | 94° |
| 2026-05-04 13:40 | 57.48035 | 61.87425 | 34838 ft | 491 kts | 94° |
| 2026-05-04 13:41 | 57.47580 | 61.99975 | 34844 ft | 489 kts | 94° |
| 2026-05-04 13:41 | 57.47121 | 62.12319 | 34839 ft | 488 kts | 95° |
| 2026-05-04 13:42 | 57.46385 | 62.31171 | 34841 ft | 488 kts | 95° |
| 2026-05-04 13:42 | 57.45868 | 62.43749 | 34831 ft | 488 kts | 95° |
| 2026-05-04 13:43 | 57.45340 | 62.56331 | 34835 ft | 489 kts | 96° |
| 2026-05-04 13:43 | 57.44798 | 62.68920 | 34836 ft | 490 kts | 96° |
| 2026-05-04 13:44 | 57.44242 | 62.81577 | 34834 ft | 493 kts | 96° |
| 2026-05-04 13:44 | 57.43676 | 62.94220 | 34821 ft | 495 kts | 96° |
| 2026-05-04 13:45 | 57.43106 | 63.06689 | 34820 ft | 497 kts | 96° |
| 2026-05-04 13:45 | 57.42506 | 63.19503 | 34834 ft | 499 kts | 97° |
| 2026-05-04 13:46 | 57.41889 | 63.32359 | 34809 ft | 500 kts | 97° |
| 2026-05-04 13:46 | 57.41261 | 63.45219 | 34811 ft | 501 kts | 97° |
| 2026-05-04 13:47 | 57.40616 | 63.58084 | 34812 ft | 501 kts | 97° |
| 2026-05-04 13:47 | 57.39963 | 63.70941 | 34814 ft | 500 kts | 97° |
| 2026-05-04 13:48 | 57.38823 | 63.83501 | 34833 ft | 495 kts | 107° |
| 2026-05-04 13:48 | 57.36992 | 63.95786 | 34805 ft | 494 kts | 108° |
| 2026-05-04 13:49 | 57.35202 | 64.07727 | 34801 ft | 493 kts | 108° |
| 2026-05-04 13:49 | 57.33423 | 64.19995 | 34802 ft | 493 kts | 108° |
| 2026-05-04 13:50 | 57.31652 | 64.32274 | 34806 ft | 493 kts | 108° |
| 2026-05-04 13:50 | 57.29872 | 64.44505 | 34811 ft | 493 kts | 108° |
| 2026-05-04 13:51 | 57.28080 | 64.56703 | 34807 ft | 494 kts | 108° |
| 2026-05-04 13:51 | 57.26275 | 64.68981 | 34806 ft | 495 kts | 108° |
| 2026-05-04 13:52 | 57.23543 | 64.87457 | 34810 ft | 498 kts | 109° |
| 2026-05-04 13:53 | 57.21697 | 64.99814 | 34803 ft | 500 kts | 109° |
| 2026-05-04 13:53 | 57.19878 | 65.11898 | 34810 ft | 501 kts | 109° |
| 2026-05-04 13:54 | 57.17062 | 65.30524 | 34807 ft | 504 kts | 107° |
| 2026-05-04 13:55 | 57.15627 | 65.49727 | 34800 ft | 509 kts | 98° |
| 2026-05-04 13:55 | 57.14490 | 65.69197 | 34809 ft | 509 kts | 99° |
| 2026-05-04 13:56 | 57.13641 | 65.82133 | 34803 ft | 508 kts | 100° |
| 2026-05-04 13:57 | 57.12352 | 66.01160 | 34796 ft | 506 kts | 100° |
| 2026-05-04 13:58 | 57.10580 | 66.26861 | 34804 ft | 505 kts | 100° |
| 2026-05-04 13:58 | 57.09229 | 66.45996 | 34810 ft | 504 kts | 100° |
| 2026-05-04 13:59 | 57.08311 | 66.58776 | 34815 ft | 505 kts | 101° |
| 2026-05-04 14:00 | 57.06907 | 66.77988 | 34807 ft | 506 kts | 101° |
| 2026-05-04 14:00 | 57.05452 | 66.97217 | 34832 ft | 507 kts | 102° |
| 2026-05-04 14:01 | 57.04380 | 67.09754 | 34832 ft | 508 kts | 102° |
| 2026-05-04 14:02 | 57.02681 | 67.28991 | 34835 ft | 510 kts | 102° |
| 2026-05-04 14:02 | 57.01542 | 67.41848 | 34833 ft | 510 kts | 102° |
| 2026-05-04 14:03 | 57.00396 | 67.54712 | 34840 ft | 511 kts | 102° |
| 2026-05-04 14:03 | 56.99241 | 67.67546 | 34840 ft | 511 kts | 102° |
| 2026-05-04 14:04 | 56.97478 | 67.86839 | 34847 ft | 511 kts | 103° |
| 2026-05-04 14:04 | 56.96294 | 67.99584 | 34854 ft | 510 kts | 103° |
| 2026-05-04 14:05 | 56.94510 | 68.18528 | 34859 ft | 511 kts | 103° |
| 2026-05-04 14:06 | 56.93285 | 68.31346 | 34862 ft | 511 kts | 103° |
| 2026-05-04 14:06 | 56.92047 | 68.44170 | 34874 ft | 511 kts | 103° |
| 2026-05-04 14:07 | 56.90793 | 68.57007 | 34870 ft | 512 kts | 103° |
| 2026-05-04 14:07 | 56.89743 | 68.67651 | 34873 ft | 511 kts | 103° |
| 2026-05-04 14:08 | 56.88257 | 68.82536 | 34878 ft | 512 kts | 103° |
| 2026-05-04 14:08 | 56.86963 | 68.95336 | 34883 ft | 512 kts | 103° |
| 2026-05-04 14:09 | 56.85245 | 69.12158 | 34890 ft | 512 kts | 103° |
| 2026-05-04 14:10 | 56.83265 | 69.31247 | 34898 ft | 511 kts | 103° |
| 2026-05-04 14:10 | 56.81926 | 69.43983 | 34916 ft | 511 kts | 103° |
| 2026-05-04 14:11 | 56.80573 | 69.56718 | 34921 ft | 511 kts | 103° |
| 2026-05-04 14:11 | 56.78515 | 69.75845 | 34941 ft | 512 kts | 103° |
| 2026-05-04 14:12 | 56.77125 | 69.88609 | 34963 ft | 512 kts | 103° |
| 2026-05-04 14:13 | 56.75055 | 70.07370 | 35001 ft | 514 kts | 103° |
| 2026-05-04 14:13 | 56.73630 | 70.20159 | 34986 ft | 516 kts | 103° |
| 2026-05-04 14:14 | 56.72138 | 70.32933 | 34983 ft | 516 kts | 104° |
| 2026-05-04 14:14 | 56.69767 | 70.52083 | 34984 ft | 516 kts | 105° |
| 2026-05-04 14:15 | 56.66601 | 70.77463 | 34995 ft | 514 kts | 104° |
| 2026-05-04 14:16 | 56.64209 | 70.96441 | 34984 ft | 513 kts | 104° |
| 2026-05-04 14:17 | 56.61831 | 71.15043 | 35001 ft | 511 kts | 104° |
| 2026-05-04 14:18 | 56.59388 | 71.33898 | 35006 ft | 510 kts | 104° |
| 2026-05-04 14:19 | 56.56098 | 71.58927 | 34994 ft | 510 kts | 104° |
| 2026-05-04 14:19 | 56.54432 | 71.71437 | 35011 ft | 511 kts | 104° |
| 2026-05-04 14:20 | 56.52749 | 71.83969 | 35007 ft | 512 kts | 104° |
| 2026-05-04 14:20 | 56.51055 | 71.96488 | 35006 ft | 514 kts | 104° |
| 2026-05-04 14:21 | 56.48525 | 72.14995 | 35013 ft | 516 kts | 104° |
| 2026-05-04 14:21 | 56.46780 | 72.27614 | 35022 ft | 517 kts | 104° |
| 2026-05-04 14:22 | 56.45021 | 72.40226 | 35018 ft | 517 kts | 104° |
| 2026-05-04 14:22 | 56.43252 | 72.52812 | 35016 ft | 517 kts | 104° |
| 2026-05-04 14:23 | 56.40578 | 72.71669 | 35024 ft | 515 kts | 105° |
| 2026-05-04 14:24 | 56.38783 | 72.84181 | 35024 ft | 514 kts | 105° |
| 2026-05-04 14:24 | 56.36985 | 72.96635 | 35030 ft | 512 kts | 104° |
| 2026-05-04 14:25 | 56.35237 | 73.08651 | 35022 ft | 511 kts | 105° |
| 2026-05-04 14:25 | 56.32508 | 73.27217 | 35035 ft | 510 kts | 105° |
| 2026-05-04 14:26 | 56.30675 | 73.39563 | 35038 ft | 510 kts | 105° |
| 2026-05-04 14:26 | 56.28826 | 73.51920 | 35049 ft | 511 kts | 105° |
| 2026-05-04 14:27 | 56.26964 | 73.64279 | 35060 ft | 512 kts | 104° |
| 2026-05-04 14:27 | 56.25082 | 73.76669 | 35052 ft | 514 kts | 104° |
| 2026-05-04 14:28 | 56.23188 | 73.89079 | 35059 ft | 516 kts | 104° |
| 2026-05-04 14:28 | 56.21253 | 74.01110 | 35058 ft | 517 kts | 107° |
| 2026-05-04 14:29 | 56.16767 | 74.25674 | 35054 ft | 518 kts | 108° |
| 2026-05-04 14:30 | 56.14534 | 74.37866 | 35062 ft | 518 kts | 108° |
| 2026-05-04 14:31 | 56.11186 | 74.56268 | 35069 ft | 517 kts | 108° |
| 2026-05-04 14:32 | 56.06709 | 74.80623 | 35065 ft | 512 kts | 108° |
| 2026-05-04 14:32 | 56.04469 | 74.92661 | 35059 ft | 508 kts | 108° |
| 2026-05-04 14:33 | 56.02301 | 75.04239 | 35062 ft | 505 kts | 108° |
| 2026-05-04 14:33 | 56.00069 | 75.16077 | 35061 ft | 501 kts | 108° |
| 2026-05-04 14:34 | 55.97844 | 75.27820 | 35058 ft | 498 kts | 108° |
| 2026-05-04 14:34 | 55.95612 | 75.39544 | 35076 ft | 497 kts | 108° |
| 2026-05-04 14:35 | 55.93372 | 75.51220 | 35069 ft | 498 kts | 108° |
| 2026-05-04 14:35 | 55.91132 | 75.62817 | 35074 ft | 498 kts | 108° |
| 2026-05-04 14:36 | 55.88864 | 75.74496 | 35064 ft | 499 kts | 108° |
| 2026-05-04 14:36 | 55.86610 | 75.86045 | 35063 ft | 499 kts | 109° |
| 2026-05-04 14:37 | 55.84315 | 75.97704 | 35064 ft | 499 kts | 109° |
| 2026-05-04 14:37 | 55.82085 | 76.08993 | 35069 ft | 499 kts | 109° |
| 2026-05-04 14:38 | 55.79777 | 76.20614 | 35059 ft | 499 kts | 109° |
| 2026-05-04 14:38 | 55.77457 | 76.32234 | 35060 ft | 499 kts | 109° |
| 2026-05-04 14:39 | 55.75126 | 76.43809 | 35061 ft | 498 kts | 109° |
| 2026-05-04 14:39 | 55.72785 | 76.55367 | 35065 ft | 497 kts | 109° |
| 2026-05-04 14:40 | 55.69263 | 76.72640 | 35078 ft | 497 kts | 109° |
| 2026-05-04 14:40 | 55.66895 | 76.84158 | 35093 ft | 497 kts | 109° |
| 2026-05-04 14:41 | 55.64522 | 76.95664 | 35087 ft | 497 kts | 109° |
| 2026-05-04 14:42 | 55.59817 | 77.18261 | 35098 ft | 495 kts | 109° |
| 2026-05-04 14:42 | 55.57424 | 77.29651 | 35111 ft | 493 kts | 109° |
| 2026-05-04 14:43 | 55.55028 | 77.40996 | 35121 ft | 492 kts | 109° |
| 2026-05-04 14:43 | 55.52628 | 77.52288 | 35118 ft | 490 kts | 110° |
| 2026-05-04 14:44 | 55.50226 | 77.63544 | 35122 ft | 489 kts | 110° |
| 2026-05-04 14:44 | 55.47818 | 77.74751 | 35121 ft | 488 kts | 110° |
| 2026-05-04 14:45 | 55.45406 | 77.85926 | 35118 ft | 487 kts | 110° |
| 2026-05-04 14:45 | 55.42991 | 77.97050 | 35121 ft | 486 kts | 110° |
| 2026-05-04 14:46 | 55.40658 | 78.07751 | 35134 ft | 485 kts | 110° |
| 2026-05-04 14:46 | 55.38229 | 78.18823 | 35128 ft | 484 kts | 110° |
| 2026-05-04 14:47 | 55.35860 | 78.29880 | 35126 ft | 483 kts | 105° |
| 2026-05-04 14:47 | 55.34674 | 78.41412 | 35133 ft | 480 kts | 95° |
| 2026-05-04 14:48 | 55.33821 | 78.53054 | 35131 ft | 480 kts | 95° |
| 2026-05-04 14:48 | 55.32931 | 78.64673 | 35129 ft | 481 kts | 96° |
| 2026-05-04 14:49 | 55.31987 | 78.76308 | 35128 ft | 482 kts | 96° |
| 2026-05-04 14:49 | 55.31018 | 78.87958 | 35135 ft | 483 kts | 96° |
| 2026-05-04 14:50 | 55.30031 | 78.99645 | 35134 ft | 484 kts | 96° |
| 2026-05-04 14:50 | 55.29062 | 79.10982 | 35133 ft | 485 kts | 96° |
| 2026-05-04 14:51 | 55.28056 | 79.22679 | 35141 ft | 485 kts | 96° |
| 2026-05-04 14:51 | 55.27038 | 79.34385 | 35136 ft | 485 kts | 96° |
| 2026-05-04 14:52 | 55.26011 | 79.46052 | 35144 ft | 484 kts | 96° |
| 2026-05-04 14:52 | 55.25147 | 79.55771 | 35143 ft | 484 kts | 96° |
| 2026-05-04 14:53 | 55.23926 | 79.69306 | 35138 ft | 483 kts | 96° |
| 2026-05-04 14:53 | 55.22869 | 79.80915 | 35131 ft | 482 kts | 96° |
| 2026-05-04 14:54 | 55.21988 | 79.90474 | 34962 ft | 469 kts | 96° |
| 2026-05-04 14:54 | 55.21463 | 79.96122 | 34320 ft | 471 kts | 96° |
| 2026-05-04 14:54 | 55.20960 | 80.01535 | 33752 ft | 474 kts | 96° |
| 2026-05-04 14:55 | 55.20427 | 80.07255 | 33139 ft | 478 kts | 96° |
| 2026-05-04 14:55 | 55.19889 | 80.12997 | 32524 ft | 479 kts | 96° |
| 2026-05-04 14:55 | 55.19344 | 80.18763 | 31905 ft | 480 kts | 96° |
| 2026-05-04 14:55 | 55.18793 | 80.24554 | 31279 ft | 481 kts | 96° |
| 2026-05-04 14:56 | 55.18241 | 80.30317 | 30663 ft | 481 kts | 96° |
| 2026-05-04 14:56 | 55.17685 | 80.36096 | 30042 ft | 481 kts | 96° |
| 2026-05-04 14:56 | 55.17128 | 80.41866 | 29426 ft | 482 kts | 96° |
| 2026-05-04 14:56 | 55.16567 | 80.47649 | 28801 ft | 482 kts | 96° |
| 2026-05-04 14:57 | 55.16001 | 80.53439 | 28181 ft | 483 kts | 96° |
| 2026-05-04 14:57 | 55.15439 | 80.59176 | 27572 ft | 488 kts | 96° |
| 2026-05-04 14:57 | 55.14861 | 80.65049 | 26950 ft | 493 kts | 96° |
| 2026-05-04 14:57 | 55.14276 | 80.70963 | 26331 ft | 495 kts | 96° |
| 2026-05-04 14:58 | 55.13684 | 80.76890 | 25707 ft | 495 kts | 96° |
| 2026-05-04 14:58 | 55.13091 | 80.82810 | 25084 ft | 494 kts | 96° |
| 2026-05-04 14:58 | 55.12503 | 80.88675 | 24454 ft | 486 kts | 97° |
| 2026-05-04 14:58 | 55.11919 | 80.94442 | 23824 ft | 478 kts | 96° |
| 2026-05-04 14:59 | 55.11509 | 81.00094 | 23193 ft | 470 kts | 89° |
| 2026-05-04 14:59 | 55.11483 | 81.05507 | 22612 ft | 464 kts | 85° |
| 2026-05-04 14:59 | 55.11667 | 81.16708 | 21371 ft | 458 kts | 84° |
| 2026-05-04 15:00 | 55.11745 | 81.22248 | 20744 ft | 455 kts | 85° |
| 2026-05-04 15:00 | 55.11795 | 81.27777 | 20113 ft | 453 kts | 85° |
| 2026-05-04 15:00 | 55.11823 | 81.33252 | 19496 ft | 448 kts | 86° |
| 2026-05-04 15:01 | 55.11839 | 81.44034 | 18243 ft | 437 kts | 86° |
| 2026-05-04 15:01 | 55.11840 | 81.49324 | 17614 ft | 432 kts | 86° |
| 2026-05-04 15:01 | 55.11839 | 81.54464 | 17001 ft | 427 kts | 86° |
| 2026-05-04 15:01 | 55.11838 | 81.59689 | 16372 ft | 422 kts | 86° |
| 2026-05-04 15:02 | 55.11835 | 81.64722 | 15756 ft | 418 kts | 86° |
| 2026-05-04 15:02 | 55.11831 | 81.69762 | 15128 ft | 413 kts | 86° |
| 2026-05-04 15:02 | 55.11826 | 81.74767 | 14508 ft | 409 kts | 87° |
| 2026-05-04 15:02 | 55.11818 | 81.79716 | 13888 ft | 406 kts | 87° |
| 2026-05-04 15:03 | 55.11807 | 81.84634 | 13258 ft | 403 kts | 87° |
| 2026-05-04 15:03 | 55.11792 | 81.89463 | 12628 ft | 391 kts | 87° |
| 2026-05-04 15:03 | 55.11774 | 81.94137 | 11996 ft | 379 kts | 87° |
| 2026-05-04 15:03 | 55.11755 | 81.98669 | 11366 ft | 368 kts | 87° |
| 2026-05-04 15:04 | 55.11739 | 82.02842 | 10880 ft | 355 kts | 87° |
| 2026-05-04 15:04 | 55.11725 | 82.07081 | 10498 ft | 341 kts | 88° |
| 2026-05-04 15:04 | 55.11700 | 82.11118 | 10211 ft | 324 kts | 88° |
| 2026-05-04 15:04 | 55.11686 | 82.14980 | 9915 ft | 312 kts | 88° |
| 2026-05-04 15:05 | 55.11670 | 82.18694 | 9617 ft | 300 kts | 89° |
| 2026-05-04 15:05 | 55.11645 | 82.22273 | 9366 ft | 290 kts | 89° |
| 2026-05-04 15:05 | 55.11625 | 82.25792 | 9152 ft | 290 kts | 89° |
| 2026-05-04 15:05 | 55.11606 | 82.29318 | 8928 ft | 288 kts | 90° |
| 2026-05-04 15:06 | 55.11586 | 82.32804 | 8709 ft | 287 kts | 89° |
| 2026-05-04 15:06 | 55.11571 | 82.36292 | 8487 ft | 287 kts | 90° |
| 2026-05-04 15:06 | 55.11530 | 82.39753 | 8265 ft | 285 kts | 90° |
| 2026-05-04 15:07 | 55.11888 | 82.46608 | 7821 ft | 282 kts | 75° |
| 2026-05-04 15:07 | 55.12321 | 82.49949 | 7603 ft | 281 kts | 76° |
| 2026-05-04 15:07 | 55.12721 | 82.53221 | 7482 ft | 276 kts | 77° |
| 2026-05-04 15:07 | 55.13107 | 82.56484 | 7325 ft | 274 kts | 76° |
| 2026-05-04 15:08 | 55.13592 | 82.59733 | 7105 ft | 277 kts | 72° |
| 2026-05-04 15:08 | 55.14145 | 82.62972 | 6873 ft | 278 kts | 72° |
| 2026-05-04 15:08 | 55.14696 | 82.66218 | 6567 ft | 279 kts | 72° |
| 2026-05-04 15:08 | 55.15240 | 82.69476 | 6269 ft | 279 kts | 72° |
| 2026-05-04 15:09 | 55.15777 | 82.72730 | 5927 ft | 278 kts | 73° |
| 2026-05-04 15:09 | 55.16043 | 82.76038 | 5561 ft | 273 kts | 88° |
| 2026-05-04 15:09 | 55.16056 | 82.79321 | 5213 ft | 268 kts | 90° |
| 2026-05-04 15:10 | 55.15436 | 82.85476 | 4557 ft | 253 kts | 127° |
| 2026-05-04 15:10 | 55.14200 | 82.87518 | 4318 ft | 238 kts | 150° |
| 2026-05-04 15:10 | 55.11259 | 82.89260 | 3736 ft | 215 kts | 180° |
| 2026-05-04 15:11 | 55.09809 | 82.89018 | 3443 ft | 205 kts | 188° |
| 2026-05-04 15:11 | 55.08413 | 82.88730 | 3155 ft | 198 kts | 187° |
| 2026-05-04 15:11 | 55.07069 | 82.88478 | 2864 ft | 191 kts | 187° |
| 2026-05-04 15:11 | 55.05771 | 82.88236 | 2553 ft | 184 kts | 186° |
| 2026-05-04 15:12 | 55.04514 | 82.88000 | 2240 ft | 179 kts | 188° |
| 2026-05-04 15:12 | 55.03450 | 82.87065 | 2007 ft | 172 kts | 236° |
| 2026-05-04 15:12 | 55.03126 | 82.85098 | 2023 ft | 173 kts | 261° |
| 2026-05-04 15:12 | 55.02901 | 82.83024 | 2015 ft | 174 kts | 259° |
| 2026-05-04 15:13 | 55.02695 | 82.80932 | 1859 ft | 174 kts | 261° |
| 2026-05-04 15:13 | 55.02510 | 82.78910 | 1670 ft | 163 kts | 261° |
| 2026-05-04 15:13 | 55.02337 | 82.77031 | 1438 ft | 150 kts | 261° |
| 2026-05-04 15:13 | 55.02175 | 82.75272 | 1248 ft | 149 kts | 261° |
| 2026-05-04 15:14 | 55.02015 | 82.73517 | 1049 ft | 146 kts | 260° |
| 2026-05-04 15:14 | 55.01854 | 82.71754 | 870 ft | 148 kts | 259° |
| 2026-05-04 15:14 | 55.01693 | 82.69974 | 644 ft | 147 kts | 259° |
| 2026-05-04 15:14 | 55.01530 | 82.68223 | 454 ft | 146 kts | 260° |
| 2026-05-04 15:15 | 55.01378 | 82.66541 | 374 ft | 120 kts | 261° |
| 2026-05-04 15:15 | 55.01283 | 82.65494 | 372 ft | 56 kts | 261° |
| 2026-05-04 15:15 | 55.01250 | 82.65137 | 372 ft | 18 kts | 261° |
| 2026-05-04 15:16 | 55.01198 | 82.65053 | 371 ft | 7 kts | 172° |
| 2026-05-04 15:16 | 55.01150 | 82.65065 | 371 ft | 7 kts | 171° |
| 2026-05-04 15:16 | 55.01058 | 82.65092 | 372 ft | 7 kts | 170° |
| 2026-05-04 15:17 | 55.01013 | 82.65105 | 372 ft | 7 kts | 171° |
| 2026-05-04 15:17 | 55.00925 | 82.65128 | 372 ft | 6 kts | 171° |
| 2026-05-04 15:17 | 55.00887 | 82.65153 | 372 ft | 6 kts | 126° |
| 2026-05-04 15:18 | 55.00883 | 82.65228 | 372 ft | 6 kts | 91° |
| 2026-05-04 15:18 | 55.00884 | 82.65302 | 372 ft | 6 kts | 85° |
| 2026-05-04 15:18 | 55.00892 | 82.65374 | 372 ft | 6 kts | 78° |
| 2026-05-04 15:19 | 55.00904 | 82.65515 | 372 ft | 6 kts | 82° |
| 2026-05-04 15:19 | 55.00910 | 82.65583 | 372 ft | 6 kts | 82° |
| 2026-05-04 15:19 | 55.00923 | 82.65721 | 372 ft | 8 kts | 80° |
| 2026-05-04 15:20 | 55.00935 | 82.65844 | 372 ft | 11 kts | 82° |
| 2026-05-04 15:20 | 55.00945 | 82.65975 | 372 ft | 11 kts | 81° |
| 2026-05-04 15:20 | 55.00958 | 82.66101 | 372 ft | 10 kts | 72° |
| 2026-05-04 15:20 | 55.00987 | 82.66214 | 372 ft | 10 kts | 69° |
| 2026-05-04 15:21 | 55.01010 | 82.66328 | 372 ft | 10 kts | 71° |
| 2026-05-04 15:21 | 55.01033 | 82.66439 | 372 ft | 10 kts | 69° |
| 2026-05-04 15:21 | 55.01084 | 82.66646 | 372 ft | 9 kts | 66° |
| 2026-05-04 15:22 | 55.01092 | 82.66736 | 372 ft | 4 kts | 136° |
| 2026-05-04 15:22 | 55.01062 | 82.66745 | 372 ft | 4 kts | 171° |
| 2026-05-04 15:22 | 55.01037 | 82.66752 | 372 ft | 1 kts | 170° |
| 2026-05-04 15:23 | 55.01033 | 82.66754 | 372 ft | 0 kts | 170° |
| 2026-05-04 15:36 | 55.00961 | 82.66547 | 372 ft | 0 kts | 170° |
| 2026-05-04 15:36 | 55.00966 | 82.66543 | 372 ft | 0 kts | 170° |